sensor_id;sensor_type;location;lat;lon;timestamp;P1;durP1;ratioP1;P2;durP2;ratioP2
8397;SDS011;4236;54.504;9.588;2023-07-16T00:01:17;6.27;;;5.77;;
8397;SDS011;4236;54.504;9.588;2023-07-16T00:03:45;5.33;;;4.93;;
8397;SDS011;4236;54.504;9.588;2023-07-16T00:06:13;5.60;;;5.10;;
8397;SDS011;4236;54.504;9.588;2023-07-16T00:08:42;6.10;;;5.70;;
8397;SDS011;4236;54.504;9.588;2023-07-16T00:11:10;7.23;;;6.10;;
8397;SDS011;4236;54.504;9.588;2023-07-16T00:13:37;6.00;;;5.23;;
8397;SDS011;4236;54.504;9.588;2023-07-16T00:16:07;6.47;;;5.80;;
8397;SDS011;4236;54.504;9.588;2023-07-16T00:18:35;6.10;;;5.50;;
8397;SDS011;4236;54.504;9.588;2023-07-16T00:21:02;6.33;;;5.63;;
8397;SDS011;4236;54.504;9.588;2023-07-16T00:23:30;7.50;;;6.17;;
8397;SDS011;4236;54.504;9.588;2023-07-16T00:25:59;6.70;;;6.30;;
8397;SDS011;4236;54.504;9.588;2023-07-16T00:28:27;7.37;;;6.10;;
8397;SDS011;4236;54.504;9.588;2023-07-16T00:30:54;6.90;;;5.70;;
8397;SDS011;4236;54.504;9.588;2023-07-16T00:33:22;6.47;;;6.07;;
8397;SDS011;4236;54.504;9.588;2023-07-16T00:35:50;6.27;;;5.80;;
8397;SDS011;4236;54.504;9.588;2023-07-16T00:38:18;6.50;;;6.00;;
8397;SDS011;4236;54.504;9.588;2023-07-16T00:40:46;7.43;;;6.80;;
8397;SDS011;4236;54.504;9.588;2023-07-16T00:43:15;6.73;;;6.30;;
8397;SDS011;4236;54.504;9.588;2023-07-16T00:45:44;6.80;;;6.30;;
8397;SDS011;4236;54.504;9.588;2023-07-16T00:48:13;6.37;;;5.97;;
8397;SDS011;4236;54.504;9.588;2023-07-16T00:50:40;6.60;;;5.93;;
8397;SDS011;4236;54.504;9.588;2023-07-16T00:53:09;7.30;;;6.70;;
8397;SDS011;4236;54.504;9.588;2023-07-16T00:55:37;8.00;;;6.60;;
8397;SDS011;4236;54.504;9.588;2023-07-16T00:58:06;6.43;;;6.03;;
8397;SDS011;4236;54.504;9.588;2023-07-16T01:00:36;6.60;;;5.87;;
8397;SDS011;4236;54.504;9.588;2023-07-16T01:03:05;10.97;;;7.20;;
8397;SDS011;4236;54.504;9.588;2023-07-16T01:05:38;9.93;;;6.37;;
8397;SDS011;4236;54.504;9.588;2023-07-16T01:08:11;6.00;;;5.70;;
8397;SDS011;4236;54.504;9.588;2023-07-16T01:10:42;7.00;;;5.57;;
8397;SDS011;4236;54.504;9.588;2023-07-16T01:13:10;6.60;;;6.10;;
8397;SDS011;4236;54.504;9.588;2023-07-16T01:15:40;6.27;;;5.77;;
8397;SDS011;4236;54.504;9.588;2023-07-16T01:18:08;6.97;;;6.47;;
8397;SDS011;4236;54.504;9.588;2023-07-16T01:20:36;7.13;;;6.63;;
8397;SDS011;4236;54.504;9.588;2023-07-16T01:23:08;7.10;;;6.13;;
8397;SDS011;4236;54.504;9.588;2023-07-16T01:25:48;7.53;;;6.40;;
8397;SDS011;4236;54.504;9.588;2023-07-16T01:28:36;6.53;;;5.97;;
8397;SDS011;4236;54.504;9.588;2023-07-16T01:31:13;7.07;;;6.67;;
8397;SDS011;4236;54.504;9.588;2023-07-16T01:33:42;7.40;;;7.00;;
8397;SDS011;4236;54.504;9.588;2023-07-16T01:36:11;8.50;;;7.80;;
8397;SDS011;4236;54.504;9.588;2023-07-16T01:38:41;7.40;;;7.00;;
8397;SDS011;4236;54.504;9.588;2023-07-16T01:41:09;8.63;;;8.03;;
8397;SDS011;4236;54.504;9.588;2023-07-16T01:43:38;7.20;;;6.80;;
8397;SDS011;4236;54.504;9.588;2023-07-16T01:46:06;8.07;;;7.27;;
8397;SDS011;4236;54.504;9.588;2023-07-16T01:48:36;7.30;;;6.90;;
8397;SDS011;4236;54.504;9.588;2023-07-16T01:51:05;8.03;;;7.53;;
8397;SDS011;4236;54.504;9.588;2023-07-16T01:53:33;7.80;;;7.27;;
8397;SDS011;4236;54.504;9.588;2023-07-16T01:56:01;7.80;;;7.30;;
8397;SDS011;4236;54.504;9.588;2023-07-16T01:58:29;8.67;;;7.90;;
8397;SDS011;4236;54.504;9.588;2023-07-16T02:00:58;8.40;;;7.80;;
8397;SDS011;4236;54.504;9.588;2023-07-16T02:03:27;8.20;;;7.70;;
8397;SDS011;4236;54.504;9.588;2023-07-16T02:05:57;7.67;;;7.13;;
8397;SDS011;4236;54.504;9.588;2023-07-16T02:08:25;7.70;;;7.40;;
8397;SDS011;4236;54.504;9.588;2023-07-16T02:10:53;8.47;;;7.77;;
8397;SDS011;4236;54.504;9.588;2023-07-16T02:13:22;8.40;;;7.67;;
8397;SDS011;4236;54.504;9.588;2023-07-16T02:15:50;8.50;;;7.90;;
8397;SDS011;4236;54.504;9.588;2023-07-16T02:18:17;7.73;;;7.33;;
8397;SDS011;4236;54.504;9.588;2023-07-16T02:20:45;8.70;;;8.00;;
8397;SDS011;4236;54.504;9.588;2023-07-16T02:23:14;7.70;;;7.30;;
8397;SDS011;4236;54.504;9.588;2023-07-16T02:25:42;8.77;;;7.90;;
8397;SDS011;4236;54.504;9.588;2023-07-16T02:28:09;8.40;;;8.00;;
8397;SDS011;4236;54.504;9.588;2023-07-16T02:30:40;7.97;;;7.47;;
8397;SDS011;4236;54.504;9.588;2023-07-16T02:33:08;7.80;;;7.30;;
8397;SDS011;4236;54.504;9.588;2023-07-16T02:35:35;8.60;;;8.20;;
8397;SDS011;4236;54.504;9.588;2023-07-16T02:38:03;8.87;;;8.23;;
8397;SDS011;4236;54.504;9.588;2023-07-16T02:40:32;8.30;;;7.80;;
8397;SDS011;4236;54.504;9.588;2023-07-16T02:43:00;8.27;;;7.57;;
8397;SDS011;4236;54.504;9.588;2023-07-16T02:45:27;8.03;;;7.63;;
8397;SDS011;4236;54.504;9.588;2023-07-16T02:47:55;8.47;;;8.07;;
8397;SDS011;4236;54.504;9.588;2023-07-16T02:50:22;8.17;;;7.57;;
8397;SDS011;4236;54.504;9.588;2023-07-16T02:52:50;8.90;;;7.90;;
8397;SDS011;4236;54.504;9.588;2023-07-16T02:55:18;8.83;;;8.33;;
8397;SDS011;4236;54.504;9.588;2023-07-16T02:57:47;8.83;;;8.10;;
8397;SDS011;4236;54.504;9.588;2023-07-16T03:00:14;8.33;;;7.83;;
8397;SDS011;4236;54.504;9.588;2023-07-16T03:02:42;9.40;;;8.50;;
8397;SDS011;4236;54.504;9.588;2023-07-16T03:05:10;9.00;;;8.13;;
8397;SDS011;4236;54.504;9.588;2023-07-16T03:07:38;9.27;;;8.20;;
8397;SDS011;4236;54.504;9.588;2023-07-16T03:10:06;9.10;;;8.60;;
8397;SDS011;4236;54.504;9.588;2023-07-16T03:12:34;9.40;;;8.80;;
8397;SDS011;4236;54.504;9.588;2023-07-16T03:15:04;8.97;;;8.20;;
8397;SDS011;4236;54.504;9.588;2023-07-16T03:17:33;11.07;;;9.27;;
8397;SDS011;4236;54.504;9.588;2023-07-16T03:20:00;10.37;;;9.47;;
8397;SDS011;4236;54.504;9.588;2023-07-16T03:22:30;10.33;;;9.17;;
8397;SDS011;4236;54.504;9.588;2023-07-16T03:24:57;9.03;;;8.27;;
8397;SDS011;4236;54.504;9.588;2023-07-16T03:27:25;9.67;;;8.97;;
8397;SDS011;4236;54.504;9.588;2023-07-16T03:29:53;8.80;;;8.00;;
8397;SDS011;4236;54.504;9.588;2023-07-16T03:32:22;9.63;;;8.77;;
8397;SDS011;4236;54.504;9.588;2023-07-16T03:34:59;9.40;;;8.50;;
8397;SDS011;4236;54.504;9.588;2023-07-16T03:37:27;9.87;;;9.00;;
8397;SDS011;4236;54.504;9.588;2023-07-16T03:39:55;9.17;;;8.73;;
8397;SDS011;4236;54.504;9.588;2023-07-16T03:42:22;9.37;;;8.57;;
8397;SDS011;4236;54.504;9.588;2023-07-16T03:44:50;8.80;;;8.17;;
8397;SDS011;4236;54.504;9.588;2023-07-16T03:47:18;10.00;;;9.27;;
8397;SDS011;4236;54.504;9.588;2023-07-16T03:49:47;8.60;;;8.00;;
8397;SDS011;4236;54.504;9.588;2023-07-16T03:52:15;9.57;;;8.73;;
8397;SDS011;4236;54.504;9.588;2023-07-16T03:54:42;9.17;;;8.43;;
8397;SDS011;4236;54.504;9.588;2023-07-16T03:57:10;9.07;;;8.53;;
8397;SDS011;4236;54.504;9.588;2023-07-16T03:59:38;10.13;;;9.23;;
8397;SDS011;4236;54.504;9.588;2023-07-16T04:02:05;12.27;;;9.63;;
8397;SDS011;4236;54.504;9.588;2023-07-16T04:04:33;9.53;;;8.93;;
8397;SDS011;4236;54.504;9.588;2023-07-16T04:07:03;10.10;;;9.40;;
8397;SDS011;4236;54.504;9.588;2023-07-16T04:09:31;10.00;;;9.30;;
8397;SDS011;4236;54.504;9.588;2023-07-16T04:11:58;9.10;;;8.50;;
8397;SDS011;4236;54.504;9.588;2023-07-16T04:14:26;9.60;;;8.90;;
8397;SDS011;4236;54.504;9.588;2023-07-16T04:16:54;9.87;;;8.97;;
8397;SDS011;4236;54.504;9.588;2023-07-16T04:19:22;10.43;;;9.50;;
8397;SDS011;4236;54.504;9.588;2023-07-16T04:21:49;10.57;;;9.90;;
8397;SDS011;4236;54.504;9.588;2023-07-16T04:24:18;13.60;;;9.20;;
8397;SDS011;4236;54.504;9.588;2023-07-16T04:26:46;10.00;;;9.30;;
8397;SDS011;4236;54.504;9.588;2023-07-16T04:29:14;10.30;;;9.60;;
8397;SDS011;4236;54.504;9.588;2023-07-16T04:31:42;10.37;;;9.70;;
8397;SDS011;4236;54.504;9.588;2023-07-16T04:34:12;10.83;;;9.90;;
8397;SDS011;4236;54.504;9.588;2023-07-16T04:36:41;10.63;;;9.73;;
8397;SDS011;4236;54.504;9.588;2023-07-16T04:39:09;10.73;;;10.23;;
8397;SDS011;4236;54.504;9.588;2023-07-16T04:41:39;9.70;;;9.20;;
8397;SDS011;4236;54.504;9.588;2023-07-16T04:44:07;10.43;;;9.70;;
8397;SDS011;4236;54.504;9.588;2023-07-16T04:46:34;8.80;;;8.23;;
8397;SDS011;4236;54.504;9.588;2023-07-16T04:49:02;9.50;;;8.90;;
8397;SDS011;4236;54.504;9.588;2023-07-16T04:51:32;9.07;;;8.27;;
8397;SDS011;4236;54.504;9.588;2023-07-16T04:54:03;8.83;;;7.97;;
8397;SDS011;4236;54.504;9.588;2023-07-16T04:56:30;8.20;;;7.70;;
8397;SDS011;4236;54.504;9.588;2023-07-16T04:58:59;7.93;;;7.40;;
8397;SDS011;4236;54.504;9.588;2023-07-16T05:01:27;7.33;;;6.73;;
8397;SDS011;4236;54.504;9.588;2023-07-16T05:03:55;6.80;;;6.20;;
8397;SDS011;4236;54.504;9.588;2023-07-16T05:06:23;6.50;;;6.10;;
8397;SDS011;4236;54.504;9.588;2023-07-16T05:08:50;8.03;;;5.83;;
8397;SDS011;4236;54.504;9.588;2023-07-16T05:11:20;5.70;;;5.17;;
8397;SDS011;4236;54.504;9.588;2023-07-16T05:13:47;5.60;;;5.20;;
8397;SDS011;4236;54.504;9.588;2023-07-16T05:16:16;7.27;;;5.90;;
8397;SDS011;4236;54.504;9.588;2023-07-16T05:18:45;6.63;;;5.40;;
8397;SDS011;4236;54.504;9.588;2023-07-16T05:21:13;6.20;;;5.70;;
8397;SDS011;4236;54.504;9.588;2023-07-16T05:23:41;5.80;;;5.40;;
8397;SDS011;4236;54.504;9.588;2023-07-16T05:26:09;7.07;;;5.50;;
8397;SDS011;4236;54.504;9.588;2023-07-16T05:28:36;5.90;;;5.50;;
8397;SDS011;4236;54.504;9.588;2023-07-16T05:31:04;6.70;;;5.30;;
8397;SDS011;4236;54.504;9.588;2023-07-16T05:33:33;7.40;;;5.60;;
8397;SDS011;4236;54.504;9.588;2023-07-16T05:36:01;6.53;;;5.53;;
8397;SDS011;4236;54.504;9.588;2023-07-16T05:38:28;6.23;;;5.73;;
8397;SDS011;4236;54.504;9.588;2023-07-16T05:40:59;6.50;;;6.00;;
8397;SDS011;4236;54.504;9.588;2023-07-16T05:43:28;6.03;;;5.37;;
8397;SDS011;4236;54.504;9.588;2023-07-16T05:45:56;8.70;;;6.10;;
8397;SDS011;4236;54.504;9.588;2023-07-16T05:48:24;12.00;;;5.80;;
8397;SDS011;4236;54.504;9.588;2023-07-16T05:50:53;7.07;;;5.07;;
8397;SDS011;4236;54.504;9.588;2023-07-16T05:53:21;6.93;;;6.20;;
8397;SDS011;4236;54.504;9.588;2023-07-16T05:55:48;7.00;;;6.30;;
8397;SDS011;4236;54.504;9.588;2023-07-16T05:58:18;7.47;;;6.07;;
8397;SDS011;4236;54.504;9.588;2023-07-16T06:00:45;6.47;;;5.87;;
8397;SDS011;4236;54.504;9.588;2023-07-16T06:03:13;6.53;;;6.00;;
8397;SDS011;4236;54.504;9.588;2023-07-16T06:05:43;6.83;;;6.17;;
8397;SDS011;4236;54.504;9.588;2023-07-16T06:08:12;5.90;;;5.37;;
8397;SDS011;4236;54.504;9.588;2023-07-16T06:10:39;6.93;;;6.40;;
8397;SDS011;4236;54.504;9.588;2023-07-16T06:13:07;6.40;;;5.33;;
8397;SDS011;4236;54.504;9.588;2023-07-16T06:15:36;6.30;;;5.70;;
8397;SDS011;4236;54.504;9.588;2023-07-16T06:18:04;6.00;;;5.60;;
8397;SDS011;4236;54.504;9.588;2023-07-16T06:20:31;8.30;;;5.63;;
8397;SDS011;4236;54.504;9.588;2023-07-16T06:22:59;6.40;;;5.45;;
8397;SDS011;4236;54.504;9.588;2023-07-16T06:25:28;5.93;;;5.33;;
8397;SDS011;4236;54.504;9.588;2023-07-16T06:27:56;4.93;;;4.53;;
8397;SDS011;4236;54.504;9.588;2023-07-16T06:30:24;5.22;;;4.75;;
8397;SDS011;4236;54.504;9.588;2023-07-16T06:32:52;5.35;;;4.93;;
8397;SDS011;4236;54.504;9.588;2023-07-16T06:35:22;6.35;;;5.72;;
8397;SDS011;4236;54.504;9.588;2023-07-16T06:37:50;6.10;;;5.35;;
8397;SDS011;4236;54.504;9.588;2023-07-16T06:40:17;6.78;;;5.22;;
8397;SDS011;4236;54.504;9.588;2023-07-16T06:42:47;5.28;;;4.78;;
8397;SDS011;4236;54.504;9.588;2023-07-16T06:45:15;7.80;;;5.07;;
8397;SDS011;4236;54.504;9.588;2023-07-16T06:47:44;6.87;;;5.70;;
8397;SDS011;4236;54.504;9.588;2023-07-16T06:50:12;5.72;;;5.32;;
8397;SDS011;4236;54.504;9.588;2023-07-16T06:52:39;7.30;;;5.63;;
8397;SDS011;4236;54.504;9.588;2023-07-16T06:55:07;7.67;;;5.50;;
8397;SDS011;4236;54.504;9.588;2023-07-16T06:57:35;6.83;;;6.13;;
8397;SDS011;4236;54.504;9.588;2023-07-16T07:00:05;8.57;;;6.50;;
8397;SDS011;4236;54.504;9.588;2023-07-16T07:02:37;7.23;;;6.40;;
8397;SDS011;4236;54.504;9.588;2023-07-16T07:05:05;6.40;;;5.80;;
8397;SDS011;4236;54.504;9.588;2023-07-16T07:07:33;7.43;;;6.63;;
8397;SDS011;4236;54.504;9.588;2023-07-16T07:10:01;8.17;;;5.90;;
8397;SDS011;4236;54.504;9.588;2023-07-16T07:12:29;7.80;;;6.40;;
8397;SDS011;4236;54.504;9.588;2023-07-16T07:15:01;8.63;;;6.10;;
8397;SDS011;4236;54.504;9.588;2023-07-16T07:17:30;7.60;;;6.60;;
8397;SDS011;4236;54.504;9.588;2023-07-16T07:19:58;7.23;;;6.57;;
8397;SDS011;4236;54.504;9.588;2023-07-16T07:22:25;7.93;;;6.50;;
8397;SDS011;4236;54.504;9.588;2023-07-16T07:24:53;8.60;;;7.57;;
8397;SDS011;4236;54.504;9.588;2023-07-16T07:27:21;7.57;;;6.27;;
8397;SDS011;4236;54.504;9.588;2023-07-16T07:29:48;7.57;;;6.97;;
8397;SDS011;4236;54.504;9.588;2023-07-16T07:32:18;7.20;;;6.50;;
8397;SDS011;4236;54.504;9.588;2023-07-16T07:34:48;7.93;;;7.13;;
8397;SDS011;4236;54.504;9.588;2023-07-16T07:37:16;6.90;;;6.30;;
8397;SDS011;4236;54.504;9.588;2023-07-16T07:39:44;8.40;;;6.40;;
8397;SDS011;4236;54.504;9.588;2023-07-16T07:42:14;6.93;;;6.33;;
8397;SDS011;4236;54.504;9.588;2023-07-16T07:44:41;10.57;;;7.10;;
8397;SDS011;4236;54.504;9.588;2023-07-16T07:47:09;7.97;;;7.47;;
8397;SDS011;4236;54.504;9.588;2023-07-16T07:49:37;7.70;;;6.97;;
8397;SDS011;4236;54.504;9.588;2023-07-16T07:52:07;8.57;;;7.80;;
8397;SDS011;4236;54.504;9.588;2023-07-16T07:54:35;11.83;;;7.50;;
8397;SDS011;4236;54.504;9.588;2023-07-16T07:57:03;10.33;;;8.27;;
8397;SDS011;4236;54.504;9.588;2023-07-16T07:59:32;8.27;;;7.53;;
8397;SDS011;4236;54.504;9.588;2023-07-16T08:01:59;9.33;;;6.57;;
8397;SDS011;4236;54.504;9.588;2023-07-16T08:04:28;8.13;;;6.70;;
8397;SDS011;4236;54.504;9.588;2023-07-16T08:06:58;9.23;;;8.33;;
8397;SDS011;4236;54.504;9.588;2023-07-16T08:09:27;7.23;;;6.53;;
8397;SDS011;4236;54.504;9.588;2023-07-16T08:11:55;7.77;;;7.17;;
8397;SDS011;4236;54.504;9.588;2023-07-16T08:14:22;8.10;;;7.03;;
8397;SDS011;4236;54.504;9.588;2023-07-16T08:16:50;9.97;;;7.97;;
8397;SDS011;4236;54.504;9.588;2023-07-16T08:19:18;12.17;;;8.67;;
8397;SDS011;4236;54.504;9.588;2023-07-16T08:21:46;8.00;;;7.30;;
8397;SDS011;4236;54.504;9.588;2023-07-16T08:24:13;8.60;;;7.83;;
8397;SDS011;4236;54.504;9.588;2023-07-16T08:26:42;8.23;;;7.50;;
8397;SDS011;4236;54.504;9.588;2023-07-16T08:29:10;8.60;;;7.67;;
8397;SDS011;4236;54.504;9.588;2023-07-16T08:31:39;10.30;;;7.83;;
8397;SDS011;4236;54.504;9.588;2023-07-16T08:34:07;8.40;;;7.60;;
8397;SDS011;4236;54.504;9.588;2023-07-16T08:36:36;7.77;;;7.07;;
8397;SDS011;4236;54.504;9.588;2023-07-16T08:39:04;7.67;;;6.83;;
8397;SDS011;4236;54.504;9.588;2023-07-16T08:41:34;9.23;;;7.53;;
8397;SDS011;4236;54.504;9.588;2023-07-16T08:44:05;9.37;;;7.50;;
8397;SDS011;4236;54.504;9.588;2023-07-16T08:46:35;7.97;;;7.17;;
8397;SDS011;4236;54.504;9.588;2023-07-16T08:49:08;7.50;;;6.90;;
8397;SDS011;4236;54.504;9.588;2023-07-16T08:51:38;8.20;;;7.60;;
8397;SDS011;4236;54.504;9.588;2023-07-16T08:54:09;7.80;;;7.00;;
8397;SDS011;4236;54.504;9.588;2023-07-16T08:56:37;8.23;;;7.27;;
8397;SDS011;4236;54.504;9.588;2023-07-16T08:59:06;9.50;;;8.00;;
8397;SDS011;4236;54.504;9.588;2023-07-16T09:01:37;7.03;;;6.43;;
8397;SDS011;4236;54.504;9.588;2023-07-16T09:04:08;10.20;;;8.10;;
8397;SDS011;4236;54.504;9.588;2023-07-16T09:06:35;8.20;;;7.40;;
8397;SDS011;4236;54.504;9.588;2023-07-16T09:09:03;6.60;;;6.10;;
8397;SDS011;4236;54.504;9.588;2023-07-16T09:11:31;7.07;;;6.43;;
8397;SDS011;4236;54.504;9.588;2023-07-16T09:14:01;8.13;;;7.10;;
8397;SDS011;4236;54.504;9.588;2023-07-16T09:16:33;7.23;;;6.50;;
8397;SDS011;4236;54.504;9.588;2023-07-16T09:19:05;6.83;;;6.17;;
8397;SDS011;4236;54.504;9.588;2023-07-16T09:21:34;9.10;;;7.07;;
8397;SDS011;4236;54.504;9.588;2023-07-16T09:24:05;9.07;;;6.83;;
8397;SDS011;4236;54.504;9.588;2023-07-16T09:26:36;7.57;;;6.83;;
8397;SDS011;4236;54.504;9.588;2023-07-16T09:29:05;6.67;;;6.17;;
8397;SDS011;4236;54.504;9.588;2023-07-16T09:31:34;9.77;;;6.40;;
8397;SDS011;4236;54.504;9.588;2023-07-16T09:34:02;8.50;;;6.80;;
8397;SDS011;4236;54.504;9.588;2023-07-16T09:36:30;6.70;;;6.03;;
8397;SDS011;4236;54.504;9.588;2023-07-16T09:38:58;6.90;;;6.30;;
8397;SDS011;4236;54.504;9.588;2023-07-16T09:41:27;6.63;;;6.03;;
8397;SDS011;4236;54.504;9.588;2023-07-16T09:43:56;7.10;;;6.00;;
8397;SDS011;4236;54.504;9.588;2023-07-16T09:46:23;8.27;;;5.37;;
8397;SDS011;4236;54.504;9.588;2023-07-16T09:48:52;9.60;;;5.80;;
8397;SDS011;4236;54.504;9.588;2023-07-16T09:51:20;7.70;;;6.90;;
8397;SDS011;4236;54.504;9.588;2023-07-16T09:53:48;7.57;;;6.70;;
8397;SDS011;4236;54.504;9.588;2023-07-16T09:56:18;7.87;;;6.57;;
8397;SDS011;4236;54.504;9.588;2023-07-16T09:58:47;7.43;;;6.73;;
8397;SDS011;4236;54.504;9.588;2023-07-16T10:01:19;9.10;;;6.70;;
8397;SDS011;4236;54.504;9.588;2023-07-16T10:03:48;6.40;;;5.83;;
8397;SDS011;4236;54.504;9.588;2023-07-16T10:06:18;7.10;;;6.53;;
8397;SDS011;4236;54.504;9.588;2023-07-16T10:08:48;7.97;;;6.90;;
8397;SDS011;4236;54.504;9.588;2023-07-16T10:11:17;7.23;;;6.53;;
8397;SDS011;4236;54.504;9.588;2023-07-16T10:13:48;12.40;;;7.00;;
8397;SDS011;4236;54.504;9.588;2023-07-16T10:16:19;8.93;;;7.07;;
8397;SDS011;4236;54.504;9.588;2023-07-16T10:18:50;6.70;;;6.20;;
8397;SDS011;4236;54.504;9.588;2023-07-16T10:21:23;6.97;;;6.37;;
8397;SDS011;4236;54.504;9.588;2023-07-16T10:23:57;7.37;;;6.83;;
8397;SDS011;4236;54.504;9.588;2023-07-16T10:26:26;6.53;;;6.07;;
8397;SDS011;4236;54.504;9.588;2023-07-16T10:28:55;6.83;;;6.23;;
8397;SDS011;4236;54.504;9.588;2023-07-16T10:31:23;9.03;;;6.63;;
8397;SDS011;4236;54.504;9.588;2023-07-16T10:33:57;7.70;;;6.93;;
8397;SDS011;4236;54.504;9.588;2023-07-16T10:36:27;7.80;;;7.20;;
8397;SDS011;4236;54.504;9.588;2023-07-16T10:39:01;8.53;;;6.57;;
8397;SDS011;4236;54.504;9.588;2023-07-16T10:41:30;9.50;;;6.40;;
8397;SDS011;4236;54.504;9.588;2023-07-16T10:43:58;8.70;;;7.70;;
8397;SDS011;4236;54.504;9.588;2023-07-16T10:46:26;7.17;;;6.47;;
8397;SDS011;4236;54.504;9.588;2023-07-16T10:48:54;6.57;;;6.03;;
8397;SDS011;4236;54.504;9.588;2023-07-16T10:51:24;7.10;;;6.40;;
8397;SDS011;4236;54.504;9.588;2023-07-16T10:53:56;7.97;;;7.00;;
8397;SDS011;4236;54.504;9.588;2023-07-16T10:56:23;8.07;;;7.17;;
8397;SDS011;4236;54.504;9.588;2023-07-16T10:58:51;6.77;;;6.13;;
8397;SDS011;4236;54.504;9.588;2023-07-16T11:01:19;8.70;;;6.80;;
8397;SDS011;4236;54.504;9.588;2023-07-16T11:03:47;7.17;;;6.57;;
8397;SDS011;4236;54.504;9.588;2023-07-16T11:06:17;6.20;;;5.50;;
8397;SDS011;4236;54.504;9.588;2023-07-16T11:08:46;7.27;;;6.57;;
8397;SDS011;4236;54.504;9.588;2023-07-16T11:11:15;9.80;;;6.50;;
8397;SDS011;4236;54.504;9.588;2023-07-16T11:13:43;6.10;;;5.60;;
8397;SDS011;4236;54.504;9.588;2023-07-16T11:16:15;6.43;;;5.90;;
8397;SDS011;4236;54.504;9.588;2023-07-16T11:18:44;6.17;;;5.60;;
8397;SDS011;4236;54.504;9.588;2023-07-16T11:21:11;7.70;;;6.23;;
8397;SDS011;4236;54.504;9.588;2023-07-16T11:23:39;7.07;;;6.00;;
8397;SDS011;4236;54.504;9.588;2023-07-16T11:26:07;6.60;;;6.03;;
8397;SDS011;4236;54.504;9.588;2023-07-16T11:28:37;12.67;;;7.67;;
8397;SDS011;4236;54.504;9.588;2023-07-16T11:31:13;10.10;;;6.43;;
8397;SDS011;4236;54.504;9.588;2023-07-16T11:33:42;6.57;;;5.80;;
8397;SDS011;4236;54.504;9.588;2023-07-16T11:36:10;7.27;;;6.60;;
8397;SDS011;4236;54.504;9.588;2023-07-16T11:38:39;6.70;;;6.10;;
8397;SDS011;4236;54.504;9.588;2023-07-16T11:41:06;6.50;;;6.00;;
8397;SDS011;4236;54.504;9.588;2023-07-16T11:43:34;8.03;;;6.70;;
8397;SDS011;4236;54.504;9.588;2023-07-16T11:46:05;6.40;;;5.90;;
8397;SDS011;4236;54.504;9.588;2023-07-16T11:48:42;7.43;;;6.73;;
8397;SDS011;4236;54.504;9.588;2023-07-16T11:51:11;6.53;;;6.00;;
8397;SDS011;4236;54.504;9.588;2023-07-16T11:53:38;6.63;;;6.03;;
8397;SDS011;4236;54.504;9.588;2023-07-16T11:56:06;10.03;;;6.33;;
8397;SDS011;4236;54.504;9.588;2023-07-16T11:58:35;7.30;;;6.70;;
8397;SDS011;4236;54.504;9.588;2023-07-16T12:01:04;7.73;;;7.07;;
8397;SDS011;4236;54.504;9.588;2023-07-16T12:03:32;8.10;;;7.30;;
8397;SDS011;4236;54.504;9.588;2023-07-16T12:06:00;8.57;;;7.60;;
8397;SDS011;4236;54.504;9.588;2023-07-16T12:08:27;7.00;;;6.30;;
8397;SDS011;4236;54.504;9.588;2023-07-16T12:10:55;9.87;;;7.13;;
8397;SDS011;4236;54.504;9.588;2023-07-16T12:13:27;7.30;;;6.63;;
8397;SDS011;4236;54.504;9.588;2023-07-16T12:15:55;6.90;;;6.30;;
8397;SDS011;4236;54.504;9.588;2023-07-16T12:18:23;6.87;;;6.37;;
8397;SDS011;4236;54.504;9.588;2023-07-16T12:20:51;6.80;;;6.17;;
8397;SDS011;4236;54.504;9.588;2023-07-16T12:23:20;6.60;;;6.00;;
8397;SDS011;4236;54.504;9.588;2023-07-16T12:25:48;7.00;;;5.70;;
8397;SDS011;4236;54.504;9.588;2023-07-16T12:28:16;10.00;;;6.57;;
8397;SDS011;4236;54.504;9.588;2023-07-16T12:30:44;7.07;;;6.53;;
8397;SDS011;4236;54.504;9.588;2023-07-16T12:33:11;6.97;;;6.53;;
8397;SDS011;4236;54.504;9.588;2023-07-16T12:35:40;7.40;;;6.90;;
8397;SDS011;4236;54.504;9.588;2023-07-16T12:38:08;9.03;;;6.20;;
8397;SDS011;4236;54.504;9.588;2023-07-16T12:40:36;7.10;;;6.70;;
8397;SDS011;4236;54.504;9.588;2023-07-16T12:43:06;7.37;;;6.60;;
8397;SDS011;4236;54.504;9.588;2023-07-16T12:45:34;6.60;;;6.00;;
8397;SDS011;4236;54.504;9.588;2023-07-16T12:48:02;10.10;;;6.50;;
8397;SDS011;4236;54.504;9.588;2023-07-16T12:50:30;7.30;;;6.67;;
8397;SDS011;4236;54.504;9.588;2023-07-16T12:52:59;6.63;;;6.13;;
8397;SDS011;4236;54.504;9.588;2023-07-16T12:55:27;7.03;;;6.57;;
8397;SDS011;4236;54.504;9.588;2023-07-16T12:57:57;7.37;;;6.77;;
8397;SDS011;4236;54.504;9.588;2023-07-16T13:00:25;7.07;;;6.37;;
8397;SDS011;4236;54.504;9.588;2023-07-16T13:02:53;7.07;;;6.57;;
8397;SDS011;4236;54.504;9.588;2023-07-16T13:05:21;9.00;;;6.50;;
8397;SDS011;4236;54.504;9.588;2023-07-16T13:07:48;6.50;;;6.10;;
8397;SDS011;4236;54.504;9.588;2023-07-16T13:10:17;6.50;;;5.90;;
8397;SDS011;4236;54.504;9.588;2023-07-16T13:12:49;7.03;;;6.07;;
8397;SDS011;4236;54.504;9.588;2023-07-16T13:15:17;7.87;;;7.17;;
8397;SDS011;4236;54.504;9.588;2023-07-16T13:17:44;10.33;;;6.60;;
8397;SDS011;4236;54.504;9.588;2023-07-16T13:20:14;7.33;;;6.73;;
8397;SDS011;4236;54.504;9.588;2023-07-16T13:22:41;7.33;;;6.77;;
8397;SDS011;4236;54.504;9.588;2023-07-16T13:25:09;6.30;;;5.73;;
8397;SDS011;4236;54.504;9.588;2023-07-16T13:27:38;6.70;;;6.20;;
8397;SDS011;4236;54.504;9.588;2023-07-16T13:30:06;6.27;;;5.77;;
8397;SDS011;4236;54.504;9.588;2023-07-16T13:32:34;6.47;;;5.87;;
8397;SDS011;4236;54.504;9.588;2023-07-16T13:35:02;7.70;;;7.00;;
8397;SDS011;4236;54.504;9.588;2023-07-16T13:37:30;7.20;;;6.67;;
8397;SDS011;4236;54.504;9.588;2023-07-16T13:39:58;7.27;;;6.57;;
8397;SDS011;4236;54.504;9.588;2023-07-16T13:42:26;10.13;;;6.30;;
8397;SDS011;4236;54.504;9.588;2023-07-16T13:44:55;6.17;;;5.70;;
8397;SDS011;4236;54.504;9.588;2023-07-16T13:47:23;8.57;;;5.90;;
8397;SDS011;4236;54.504;9.588;2023-07-16T13:49:54;8.00;;;6.87;;
8397;SDS011;4236;54.504;9.588;2023-07-16T13:52:21;8.37;;;6.67;;
8397;SDS011;4236;54.504;9.588;2023-07-16T13:54:49;6.13;;;5.53;;
8397;SDS011;4236;54.504;9.588;2023-07-16T13:57:17;7.67;;;7.00;;
8397;SDS011;4236;54.504;9.588;2023-07-16T13:59:44;15.80;;;7.30;;
8397;SDS011;4236;54.504;9.588;2023-07-16T14:02:13;7.53;;;6.93;;
8397;SDS011;4236;54.504;9.588;2023-07-16T14:04:41;8.03;;;6.40;;
8397;SDS011;4236;54.504;9.588;2023-07-16T14:07:09;7.40;;;6.80;;
8397;SDS011;4236;54.504;9.588;2023-07-16T14:09:36;10.37;;;6.07;;
8397;SDS011;4236;54.504;9.588;2023-07-16T14:12:04;7.77;;;7.17;;
8397;SDS011;4236;54.504;9.588;2023-07-16T14:14:32;7.80;;;6.83;;
8397;SDS011;4236;54.504;9.588;2023-07-16T14:17:00;7.00;;;6.50;;
8397;SDS011;4236;54.504;9.588;2023-07-16T14:19:29;6.87;;;6.37;;
8397;SDS011;4236;54.504;9.588;2023-07-16T14:21:57;7.30;;;6.70;;
8397;SDS011;4236;54.504;9.588;2023-07-16T14:24:24;12.20;;;6.43;;
8397;SDS011;4236;54.504;9.588;2023-07-16T14:26:52;7.03;;;6.50;;
8397;SDS011;4236;54.504;9.588;2023-07-16T14:29:20;7.90;;;7.10;;
8397;SDS011;4236;54.504;9.588;2023-07-16T14:31:47;7.40;;;6.90;;
8397;SDS011;4236;54.504;9.588;2023-07-16T14:34:18;7.87;;;7.30;;
8397;SDS011;4236;54.504;9.588;2023-07-16T14:36:47;10.63;;;6.80;;
8397;SDS011;4236;54.504;9.588;2023-07-16T14:39:15;8.10;;;7.30;;
8397;SDS011;4236;54.504;9.588;2023-07-16T14:41:43;7.80;;;7.03;;
8397;SDS011;4236;54.504;9.588;2023-07-16T14:44:11;7.70;;;7.10;;
8397;SDS011;4236;54.504;9.588;2023-07-16T14:46:38;7.20;;;6.60;;
8397;SDS011;4236;54.504;9.588;2023-07-16T14:49:06;8.47;;;7.50;;
8397;SDS011;4236;54.504;9.588;2023-07-16T14:51:34;11.70;;;8.77;;
8397;SDS011;4236;54.504;9.588;2023-07-16T14:54:07;8.70;;;7.90;;
8397;SDS011;4236;54.504;9.588;2023-07-16T14:56:35;8.47;;;7.60;;
8397;SDS011;4236;54.504;9.588;2023-07-16T14:59:03;9.10;;;7.53;;
8397;SDS011;4236;54.504;9.588;2023-07-16T15:01:30;7.90;;;6.20;;
8397;SDS011;4236;54.504;9.588;2023-07-16T15:04:00;7.00;;;6.33;;
8397;SDS011;4236;54.504;9.588;2023-07-16T15:06:27;7.57;;;6.80;;
8397;SDS011;4236;54.504;9.588;2023-07-16T15:08:55;7.20;;;6.70;;
8397;SDS011;4236;54.504;9.588;2023-07-16T15:11:24;8.03;;;7.37;;
8397;SDS011;4236;54.504;9.588;2023-07-16T15:13:52;8.70;;;7.20;;
8397;SDS011;4236;54.504;9.588;2023-07-16T15:16:19;7.90;;;7.10;;
8397;SDS011;4236;54.504;9.588;2023-07-16T15:18:47;7.33;;;6.70;;
8397;SDS011;4236;54.504;9.588;2023-07-16T15:21:15;7.60;;;7.10;;
8397;SDS011;4236;54.504;9.588;2023-07-16T15:23:43;7.40;;;6.90;;